sensor_id;sensor_type;location;lat;lon;timestamp;temperature;humidity
5588;DHT22;2816;49.778;9.986;2022-08-18T00:00:09;21.60;96.00
5588;DHT22;2816;49.778;9.986;2022-08-18T00:02:40;21.50;96.00
5588;DHT22;2816;49.778;9.986;2022-08-18T00:05:08;21.50;96.30
5588;DHT22;2816;49.778;9.986;2022-08-18T00:07:36;21.50;96.50
5588;DHT22;2816;49.778;9.986;2022-08-18T00:10:05;21.40;96.40
5588;DHT22;2816;49.778;9.986;2022-08-18T00:12:35;21.40;96.40
5588;DHT22;2816;49.778;9.986;2022-08-18T00:15:03;21.30;96.60
5588;DHT22;2816;49.778;9.986;2022-08-18T00:17:33;21.20;96.80
5588;DHT22;2816;49.778;9.986;2022-08-18T00:20:01;21.20;97.00
5588;DHT22;2816;49.778;9.986;2022-08-18T00:22:29;21.20;96.90
5588;DHT22;2816;49.778;9.986;2022-08-18T00:24:56;21.20;96.80
5588;DHT22;2816;49.778;9.986;2022-08-18T00:27:26;21.30;96.90
5588;DHT22;2816;49.778;9.986;2022-08-18T00:29:54;21.50;96.10
5588;DHT22;2816;49.778;9.986;2022-08-18T00:32:24;21.90;95.40
5588;DHT22;2816;49.778;9.986;2022-08-18T00:34:53;21.90;95.70
5588;DHT22;2816;49.778;9.986;2022-08-18T00:37:22;21.80;95.90
5588;DHT22;2816;49.778;9.986;2022-08-18T00:39:50;21.80;95.90
5588;DHT22;2816;49.778;9.986;2022-08-18T00:42:21;21.90;95.90
5588;DHT22;2816;49.778;9.986;2022-08-18T00:44:48;21.90;95.60
5588;DHT22;2816;49.778;9.986;2022-08-18T00:47:15;21.90;95.50
5588;DHT22;2816;49.778;9.986;2022-08-18T00:49:44;22.00;95.30
5588;DHT22;2816;49.778;9.986;2022-08-18T00:52:14;22.00;95.20
5588;DHT22;2816;49.778;9.986;2022-08-18T00:54:42;22.00;95.10
5588;DHT22;2816;49.778;9.986;2022-08-18T00:57:12;22.00;95.20
5588;DHT22;2816;49.778;9.986;2022-08-18T00:59:43;22.00;95.10
5588;DHT22;2816;49.778;9.986;2022-08-18T01:02:16;21.90;95.30
5588;DHT22;2816;49.778;9.986;2022-08-18T01:04:50;22.00;95.00
5588;DHT22;2816;49.778;9.986;2022-08-18T01:07:24;22.00;95.70
5588;DHT22;2816;49.778;9.986;2022-08-18T01:09:55;22.10;95.50
5588;DHT22;2816;49.778;9.986;2022-08-18T01:12:24;22.10;95.30
5588;DHT22;2816;49.778;9.986;2022-08-18T01:14:51;22.00;96.60
5588;DHT22;2816;49.778;9.986;2022-08-18T01:17:18;22.10;96.70
5588;DHT22;2816;49.778;9.986;2022-08-18T01:20:04;22.10;96.10
5588;DHT22;2816;49.778;9.986;2022-08-18T01:22:56;22.10;95.90
5588;DHT22;2816;49.778;9.986;2022-08-18T01:25:26;22.10;96.30
5588;DHT22;2816;49.778;9.986;2022-08-18T01:28:10;22.20;96.50
5588;DHT22;2816;49.778;9.986;2022-08-18T01:30:45;22.10;97.30
5588;DHT22;2816;49.778;9.986;2022-08-18T01:33:14;22.10;96.40
5588;DHT22;2816;49.778;9.986;2022-08-18T01:35:42;22.20;96.70
5588;DHT22;2816;49.778;9.986;2022-08-18T01:38:15;22.20;97.30
5588;DHT22;2816;49.778;9.986;2022-08-18T01:40:44;22.20;96.50
5588;DHT22;2816;49.778;9.986;2022-08-18T01:43:11;22.20;97.00
5588;DHT22;2816;49.778;9.986;2022-08-18T01:45:39;22.20;96.70
5588;DHT22;2816;49.778;9.986;2022-08-18T01:48:06;22.20;97.30
5588;DHT22;2816;49.778;9.986;2022-08-18T01:50:34;22.10;98.20
5588;DHT22;2816;49.778;9.986;2022-08-18T01:53:04;22.10;97.50
5588;DHT22;2816;49.778;9.986;2022-08-18T01:55:34;22.10;97.60
5588;DHT22;2816;49.778;9.986;2022-08-18T01:58:01;22.20;97.60
5588;DHT22;2816;49.778;9.986;2022-08-18T02:00:29;22.20;97.00
5588;DHT22;2816;49.778;9.986;2022-08-18T02:02:57;22.10;98.40
5588;DHT22;2816;49.778;9.986;2022-08-18T02:05:30;22.10;98.40
5588;DHT22;2816;49.778;9.986;2022-08-18T02:07:58;22.10;97.70
5588;DHT22;2816;49.778;9.986;2022-08-18T02:10:25;22.10;98.10
5588;DHT22;2816;49.778;9.986;2022-08-18T02:12:53;22.10;98.90
5588;DHT22;2816;49.778;9.986;2022-08-18T02:15:20;22.00;98.80
5588;DHT22;2816;49.778;9.986;2022-08-18T02:17:47;22.00;98.50
5588;DHT22;2816;49.778;9.986;2022-08-18T02:20:17;22.00;98.30
5588;DHT22;2816;49.778;9.986;2022-08-18T02:22:45;22.00;99.20
5588;DHT22;2816;49.778;9.986;2022-08-18T02:25:13;21.90;99.10
5588;DHT22;2816;49.778;9.986;2022-08-18T02:27:40;22.00;98.10
5588;DHT22;2816;49.778;9.986;2022-08-18T02:30:11;22.00;98.40
5588;DHT22;2816;49.778;9.986;2022-08-18T02:32:39;22.10;98.40
5588;DHT22;2816;49.778;9.986;2022-08-18T02:35:07;22.10;98.90
5588;DHT22;2816;49.778;9.986;2022-08-18T02:37:35;22.00;98.90
5588;DHT22;2816;49.778;9.986;2022-08-18T02:40:03;22.00;99.00
5588;DHT22;2816;49.778;9.986;2022-08-18T02:42:30;22.00;99.00
5588;DHT22;2816;49.778;9.986;2022-08-18T02:44:57;22.00;98.10
5588;DHT22;2816;49.778;9.986;2022-08-18T02:47:25;22.00;98.80
5588;DHT22;2816;49.778;9.986;2022-08-18T02:49:52;22.00;98.90
5588;DHT22;2816;49.778;9.986;2022-08-18T02:52:19;22.00;98.60
5588;DHT22;2816;49.778;9.986;2022-08-18T02:54:46;22.00;98.00
5588;DHT22;2816;49.778;9.986;2022-08-18T02:57:14;22.00;99.10
5588;DHT22;2816;49.778;9.986;2022-08-18T02:59:41;21.90;99.00
5588;DHT22;2816;49.778;9.986;2022-08-18T03:02:08;21.90;98.60
5588;DHT22;2816;49.778;9.986;2022-08-18T03:04:37;21.90;99.50
5588;DHT22;2816;49.778;9.986;2022-08-18T03:07:05;21.90;99.10
5588;DHT22;2816;49.778;9.986;2022-08-18T03:09:34;21.90;98.80
5588;DHT22;2816;49.778;9.986;2022-08-18T03:12:01;21.80;99.90
5588;DHT22;2816;49.778;9.986;2022-08-18T03:14:29;21.70;99.90
5588;DHT22;2816;49.778;9.986;2022-08-18T03:16:56;21.70;99.90
5588;DHT22;2816;49.778;9.986;2022-08-18T03:19:24;21.60;99.90
5588;DHT22;2816;49.778;9.986;2022-08-18T03:21:55;21.60;99.90
5588;DHT22;2816;49.778;9.986;2022-08-18T03:24:24;21.60;99.90
5588;DHT22;2816;49.778;9.986;2022-08-18T03:26:52;21.60;99.90
5588;DHT22;2816;49.778;9.986;2022-08-18T03:29:20;21.60;99.90
5588;DHT22;2816;49.778;9.986;2022-08-18T03:31:48;21.70;99.90
5588;DHT22;2816;49.778;9.986;2022-08-18T03:34:16;21.90;99.90
5588;DHT22;2816;49.778;9.986;2022-08-18T03:36:46;21.80;99.90
5588;DHT22;2816;49.778;9.986;2022-08-18T03:39:15;21.80;99.90
5588;DHT22;2816;49.778;9.986;2022-08-18T03:41:44;21.70;99.90
5588;DHT22;2816;49.778;9.986;2022-08-18T03:44:12;21.70;99.90
5588;DHT22;2816;49.778;9.986;2022-08-18T03:46:40;21.80;99.90
5588;DHT22;2816;49.778;9.986;2022-08-18T03:49:08;21.80;99.90
5588;DHT22;2816;49.778;9.986;2022-08-18T03:51:36;21.70;99.90
5588;DHT22;2816;49.778;9.986;2022-08-18T03:54:05;21.70;99.90
5588;DHT22;2816;49.778;9.986;2022-08-18T03:56:35;21.70;99.90
5588;DHT22;2816;49.778;9.986;2022-08-18T03:59:05;21.70;99.90
5588;DHT22;2816;49.778;9.986;2022-08-18T04:01:35;21.60;99.90
5588;DHT22;2816;49.778;9.986;2022-08-18T04:04:08;21.50;99.90
5588;DHT22;2816;49.778;9.986;2022-08-18T04:06:39;21.40;99.90
5588;DHT22;2816;49.778;9.986;2022-08-18T04:09:09;21.40;99.90
5588;DHT22;2816;49.778;9.986;2022-08-18T04:11:39;21.50;99.90
5588;DHT22;2816;49.778;9.986;2022-08-18T04:14:07;21.40;99.90
5588;DHT22;2816;49.778;9.986;2022-08-18T04:16:34;21.40;99.90
5588;DHT22;2816;49.778;9.986;2022-08-18T04:19:02;21.50;99.90
5588;DHT22;2816;49.778;9.986;2022-08-18T04:21:31;21.40;99.90
5588;DHT22;2816;49.778;9.986;2022-08-18T04:23:59;21.40;99.90
5588;DHT22;2816;49.778;9.986;2022-08-18T04:26:29;21.40;99.90
5588;DHT22;2816;49.778;9.986;2022-08-18T04:28:58;21.30;99.90
5588;DHT22;2816;49.778;9.986;2022-08-18T04:31:27;21.30;99.90
5588;DHT22;2816;49.778;9.986;2022-08-18T04:33:56;21.10;99.90
5588;DHT22;2816;49.778;9.986;2022-08-18T04:36:24;21.00;99.90
5588;DHT22;2816;49.778;9.986;2022-08-18T04:38:52;21.00;99.90
5588;DHT22;2816;49.778;9.986;2022-08-18T04:41:19;21.00;99.90
5588;DHT22;2816;49.778;9.986;2022-08-18T04:43:47;20.80;99.90
5588;DHT22;2816;49.778;9.986;2022-08-18T04:46:18;20.90;99.90
5588;DHT22;2816;49.778;9.986;2022-08-18T04:48:45;20.80;99.90
5588;DHT22;2816;49.778;9.986;2022-08-18T04:51:15;20.90;99.90
5588;DHT22;2816;49.778;9.986;2022-08-18T04:53:43;21.00;99.90
5588;DHT22;2816;49.778;9.986;2022-08-18T04:56:18;21.10;99.90
5588;DHT22;2816;49.778;9.986;2022-08-18T04:58:52;21.20;99.90
5588;DHT22;2816;49.778;9.986;2022-08-18T05:01:22;21.10;99.90
5588;DHT22;2816;49.778;9.986;2022-08-18T05:03:50;21.10;99.90
5588;DHT22;2816;49.778;9.986;2022-08-18T05:06:19;21.20;99.90
5588;DHT22;2816;49.778;9.986;2022-08-18T05:08:49;21.10;99.90
5588;DHT22;2816;49.778;9.986;2022-08-18T05:11:18;21.00;99.90
5588;DHT22;2816;49.778;9.986;2022-08-18T05:13:47;21.00;99.90
5588;DHT22;2816;49.778;9.986;2022-08-18T05:16:14;20.90;99.90
5588;DHT22;2816;49.778;9.986;2022-08-18T05:18:43;20.90;99.90
5588;DHT22;2816;49.778;9.986;2022-08-18T05:21:11;21.00;99.90
5588;DHT22;2816;49.778;9.986;2022-08-18T05:23:40;21.00;99.90
5588;DHT22;2816;49.778;9.986;2022-08-18T05:26:08;20.90;99.90
5588;DHT22;2816;49.778;9.986;2022-08-18T05:28:36;20.90;99.90
5588;DHT22;2816;49.778;9.986;2022-08-18T05:31:07;20.70;99.90
5588;DHT22;2816;49.778;9.986;2022-08-18T05:33:34;20.60;99.90
5588;DHT22;2816;49.778;9.986;2022-08-18T05:36:21;20.60;99.90
5588;DHT22;2816;49.778;9.986;2022-08-18T05:38:55;20.70;99.90
5588;DHT22;2816;49.778;9.986;2022-08-18T05:41:27;20.70;99.90
5588;DHT22;2816;49.778;9.986;2022-08-18T05:43:58;20.60;99.90
5588;DHT22;2816;49.778;9.986;2022-08-18T05:46:31;20.60;99.90
5588;DHT22;2816;49.778;9.986;2022-08-18T05:49:00;20.70;99.90
5588;DHT22;2816;49.778;9.986;2022-08-18T05:51:34;20.80;99.90
5588;DHT22;2816;49.778;9.986;2022-08-18T05:54:04;20.80;99.90
5588;DHT22;2816;49.778;9.986;2022-08-18T05:56:51;20.80;99.90
5588;DHT22;2816;49.778;9.986;2022-08-18T05:59:22;20.80;99.90
5588;DHT22;2816;49.778;9.986;2022-08-18T06:01:56;20.60;99.90
5588;DHT22;2816;49.778;9.986;2022-08-18T06:04:36;20.70;99.90
5588;DHT22;2816;49.778;9.986;2022-08-18T06:07:11;20.80;99.90
5588;DHT22;2816;49.778;9.986;2022-08-18T06:09:42;20.70;99.90
5588;DHT22;2816;49.778;9.986;2022-08-18T06:12:18;20.70;99.90
5588;DHT22;2816;49.778;9.986;2022-08-18T06:14:47;20.70;99.90
5588;DHT22;2816;49.778;9.986;2022-08-18T06:20:15;20.70;99.90
5588;DHT22;2816;49.778;9.986;2022-08-18T06:22:51;20.70;99.90
5588;DHT22;2816;49.778;9.986;2022-08-18T06:25:25;20.70;99.90
5588;DHT22;2816;49.778;9.986;2022-08-18T06:28:03;20.70;99.90
5588;DHT22;2816;49.778;9.986;2022-08-18T06:30:43;20.80;99.90
5588;DHT22;2816;49.778;9.986;2022-08-18T06:33:23;20.90;99.90
5588;DHT22;2816;49.778;9.986;2022-08-18T06:35:59;20.70;99.90
5588;DHT22;2816;49.778;9.986;2022-08-18T06:38:42;20.70;99.90
5588;DHT22;2816;49.778;9.986;2022-08-18T06:41:15;20.70;99.90
5588;DHT22;2816;49.778;9.986;2022-08-18T06:43:54;20.70;99.90
5588;DHT22;2816;49.778;9.986;2022-08-18T06:46:28;20.70;99.90
5588;DHT22;2816;49.778;9.986;2022-08-18T06:49:02;20.90;99.90
5588;DHT22;2816;49.778;9.986;2022-08-18T06:51:30;20.90;99.90
5588;DHT22;2816;49.778;9.986;2022-08-18T06:54:01;21.00;99.90
5588;DHT22;2816;49.778;9.986;2022-08-18T06:56:34;21.00;99.90
5588;DHT22;2816;49.778;9.986;2022-08-18T06:59:21;21.00;99.90
5588;DHT22;2816;49.778;9.986;2022-08-18T07:01:51;21.00;99.90
5588;DHT22;2816;49.778;9.986;2022-08-18T07:04:36;21.10;99.90
5588;DHT22;2816;49.778;9.986;2022-08-18T07:07:16;21.30;99.90
5588;DHT22;2816;49.778;9.986;2022-08-18T07:09:47;21.30;99.90
5588;DHT22;2816;49.778;9.986;2022-08-18T07:12:20;21.20;99.90
5588;DHT22;2816;49.778;9.986;2022-08-18T07:14:51;21.40;99.90
5588;DHT22;2816;49.778;9.986;2022-08-18T07:17:22;21.40;99.90
5588;DHT22;2816;49.778;9.986;2022-08-18T07:19:55;21.30;99.90
5588;DHT22;2816;49.778;9.986;2022-08-18T07:22:22;21.30;99.90
5588;DHT22;2816;49.778;9.986;2022-08-18T07:24:52;21.40;99.90
5588;DHT22;2816;49.778;9.986;2022-08-18T07:27:22;21.40;99.90
5588;DHT22;2816;49.778;9.986;2022-08-18T07:30:07;21.50;99.90
5588;DHT22;2816;49.778;9.986;2022-08-18T07:32:47;21.50;99.90
5588;DHT22;2816;49.778;9.986;2022-08-18T07:35:19;21.30;99.90
5588;DHT22;2816;49.778;9.986;2022-08-18T07:37:54;21.40;99.90
5588;DHT22;2816;49.778;9.986;2022-08-18T07:40:28;21.50;99.90
5588;DHT22;2816;49.778;9.986;2022-08-18T07:42:59;21.50;99.90
5588;DHT22;2816;49.778;9.986;2022-08-18T07:45:31;21.60;99.90
5588;DHT22;2816;49.778;9.986;2022-08-18T07:48:08;21.60;99.90
5588;DHT22;2816;49.778;9.986;2022-08-18T07:50:41;21.70;99.90
5588;DHT22;2816;49.778;9.986;2022-08-18T07:53:21;21.70;99.90
5588;DHT22;2816;49.778;9.986;2022-08-18T07:55:57;21.80;99.90
5588;DHT22;2816;49.778;9.986;2022-08-18T07:58:33;21.90;99.90
5588;DHT22;2816;49.778;9.986;2022-08-18T08:01:09;21.90;99.90
5588;DHT22;2816;49.778;9.986;2022-08-18T08:03:44;22.00;99.90
5588;DHT22;2816;49.778;9.986;2022-08-18T08:06:18;22.10;99.90
5588;DHT22;2816;49.778;9.986;2022-08-18T08:08:53;22.30;99.90
5588;DHT22;2816;49.778;9.986;2022-08-18T08:11:35;22.40;99.90
5588;DHT22;2816;49.778;9.986;2022-08-18T08:14:16;22.50;99.90
5588;DHT22;2816;49.778;9.986;2022-08-18T08:16:49;22.60;99.90
5588;DHT22;2816;49.778;9.986;2022-08-18T08:19:35;22.60;99.90
5588;DHT22;2816;49.778;9.986;2022-08-18T08:22:07;22.60;99.90
5588;DHT22;2816;49.778;9.986;2022-08-18T08:24:42;22.50;99.90
5588;DHT22;2816;49.778;9.986;2022-08-18T08:27:20;22.70;99.90
5588;DHT22;2816;49.778;9.986;2022-08-18T08:29:56;22.70;99.90
5588;DHT22;2816;49.778;9.986;2022-08-18T08:32:30;22.60;99.90
5588;DHT22;2816;49.778;9.986;2022-08-18T08:35:04;22.50;99.90
5588;DHT22;2816;49.778;9.986;2022-08-18T08:37:35;22.30;99.90
5588;DHT22;2816;49.778;9.986;2022-08-18T08:40:08;22.20;99.90
5588;DHT22;2816;49.778;9.986;2022-08-18T08:42:44;22.20;99.90
5588;DHT22;2816;49.778;9.986;2022-08-18T08:45:17;22.20;99.90
5588;DHT22;2816;49.778;9.986;2022-08-18T08:47:53;22.20;99.90
5588;DHT22;2816;49.778;9.986;2022-08-18T08:50:25;22.10;99.90
5588;DHT22;2816;49.778;9.986;2022-08-18T08:52:56;22.00;99.90
5588;DHT22;2816;49.778;9.986;2022-08-18T08:55:27;22.00;99.90
5588;DHT22;2816;49.778;9.986;2022-08-18T08:58:07;22.00;99.90
5588;DHT22;2816;49.778;9.986;2022-08-18T09:00:38;22.00;99.90
5588;DHT22;2816;49.778;9.986;2022-08-18T09:03:20;22.10;99.90
5588;DHT22;2816;49.778;9.986;2022-08-18T09:05:58;22.20;99.90
5588;DHT22;2816;49.778;9.986;2022-08-18T09:11:24;21.90;99.90
5588;DHT22;2816;49.778;9.986;2022-08-18T09:14:16;22.00;99.90
5588;DHT22;2816;49.778;9.986;2022-08-18T09:16:54;22.20;99.90
5588;DHT22;2816;49.778;9.986;2022-08-18T09:19:35;22.10;99.90
5588;DHT22;2816;49.778;9.986;2022-08-18T09:22:12;22.10;99.90
5588;DHT22;2816;49.778;9.986;2022-08-18T09:24:46;22.10;99.90
5588;DHT22;2816;49.778;9.986;2022-08-18T09:27:26;22.20;99.90
5588;DHT22;2816;49.778;9.986;2022-08-18T09:29:59;22.20;99.90
5588;DHT22;2816;49.778;9.986;2022-08-18T09:32:38;22.00;99.90
5588;DHT22;2816;49.778;9.986;2022-08-18T09:35:17;22.10;99.90
5588;DHT22;2816;49.778;9.986;2022-08-18T09:37:53;22.30;99.90
5588;DHT22;2816;49.778;9.986;2022-08-18T09:40:35;22.40;99.90
5588;DHT22;2816;49.778;9.986;2022-08-18T09:43:30;22.20;99.90
5588;DHT22;2816;49.778;9.986;2022-08-18T09:46:00;22.20;99.90
5588;DHT22;2816;49.778;9.986;2022-08-18T09:48:31;22.40;99.90
5588;DHT22;2816;49.778;9.986;2022-08-18T09:57:06;22.50;99.90
5588;DHT22;2816;49.778;9.986;2022-08-18T10:03:14;22.20;99.90
5588;DHT22;2816;49.778;9.986;2022-08-18T10:06:11;22.30;99.90
5588;DHT22;2816;49.778;9.986;2022-08-18T10:12:07;22.30;99.90
5588;DHT22;2816;49.778;9.986;2022-08-18T10:17:59;22.50;99.90
5588;DHT22;2816;49.778;9.986;2022-08-18T10:20:39;22.70;99.90
5588;DHT22;2816;49.778;9.986;2022-08-18T10:23:08;22.80;99.90
5588;DHT22;2816;49.778;9.986;2022-08-18T10:25:38;22.70;99.90
5588;DHT22;2816;49.778;9.986;2022-08-18T10:28:08;22.80;99.90
5588;DHT22;2816;49.778;9.986;2022-08-18T10:33:55;23.10;99.90
5588;DHT22;2816;49.778;9.986;2022-08-18T10:36:49;23.30;99.90
5588;DHT22;2816;49.778;9.986;2022-08-18T10:39:20;23.60;99.90
5588;DHT22;2816;49.778;9.986;2022-08-18T10:42:01;23.90;99.90
5588;DHT22;2816;49.778;9.986;2022-08-18T10:44:31;24.10;99.90
5588;DHT22;2816;49.778;9.986;2022-08-18T10:47:01;24.10;99.90
5588;DHT22;2816;49.778;9.986;2022-08-18T10:49:30;24.20;99.90
5588;DHT22;2816;49.778;9.986;2022-08-18T10:55:12;24.30;99.90
5588;DHT22;2816;49.778;9.986;2022-08-18T10:58:06;24.30;99.50
5588;DHT22;2816;49.778;9.986;2022-08-18T11:00:44;24.20;99.50
5588;DHT22;2816;49.778;9.986;2022-08-18T11:03:17;24.10;99.50
5588;DHT22;2816;49.778;9.986;2022-08-18T11:05:46;24.50;98.80
5588;DHT22;2816;49.778;9.986;2022-08-18T11:08:18;24.60;98.00
5588;DHT22;2816;49.778;9.986;2022-08-18T11:10:48;25.10;97.20
5588;DHT22;2816;49.778;9.986;2022-08-18T11:13:21;25.50;96.10
5588;DHT22;2816;49.778;9.986;2022-08-18T11:16:00;25.50;96.50
5588;DHT22;2816;49.778;9.986;2022-08-18T11:18:35;25.30;96.70
5588;DHT22;2816;49.778;9.986;2022-08-18T11:21:22;25.70;96.30
5588;DHT22;2816;49.778;9.986;2022-08-18T11:24:04;26.00;95.50
5588;DHT22;2816;49.778;9.986;2022-08-18T11:26:32;25.90;95.30
5588;DHT22;2816;49.778;9.986;2022-08-18T11:28:59;26.00;95.00
5588;DHT22;2816;49.778;9.986;2022-08-18T11:31:27;25.90;95.20
5588;DHT22;2816;49.778;9.986;2022-08-18T11:33:54;26.00;94.90
5588;DHT22;2816;49.778;9.986;2022-08-18T11:36:29;26.30;94.80
5588;DHT22;2816;49.778;9.986;2022-08-18T11:38:56;26.70;93.80
5588;DHT22;2816;49.778;9.986;2022-08-18T11:41:26;26.90;92.60
5588;DHT22;2816;49.778;9.986;2022-08-18T11:43:55;26.70;92.60
5588;DHT22;2816;49.778;9.986;2022-08-18T11:46:27;27.00;92.10
5588;DHT22;2816;49.778;9.986;2022-08-18T11:48:55;26.90;91.90
5588;DHT22;2816;49.778;9.986;2022-08-18T11:51:24;26.80;92.00
5588;DHT22;2816;49.778;9.986;2022-08-18T11:53:54;26.60;92.00
5588;DHT22;2816;49.778;9.986;2022-08-18T11:56:25;26.20;92.10
5588;DHT22;2816;49.778;9.986;2022-08-18T11:58:55;26.00;92.60
5588;DHT22;2816;49.778;9.986;2022-08-18T12:01:38;25.80;93.00
5588;DHT22;2816;49.778;9.986;2022-08-18T12:04:14;25.70;93.10
5588;DHT22;2816;49.778;9.986;2022-08-18T12:06:55;25.90;92.90
5588;DHT22;2816;49.778;9.986;2022-08-18T12:09:33;25.90;92.90
5588;DHT22;2816;49.778;9.986;2022-08-18T12:12:05;25.80;92.80
5588;DHT22;2816;49.778;9.986;2022-08-18T12:14:50;25.80;93.10
5588;DHT22;2816;49.778;9.986;2022-08-18T12:17:18;25.60;93.50
5588;DHT22;2816;49.778;9.986;2022-08-18T12:19:45;26.00;93.30
5588;DHT22;2816;49.778;9.986;2022-08-18T12:22:15;26.00;93.10
5588;DHT22;2816;49.778;9.986;2022-08-18T12:24:42;26.10;92.90
5588;DHT22;2816;49.778;9.986;2022-08-18T12:27:12;26.40;93.30
5588;DHT22;2816;49.778;9.986;2022-08-18T12:29:40;26.20;93.80
5588;DHT22;2816;49.778;9.986;2022-08-18T12:32:07;26.50;93.30
5588;DHT22;2816;49.778;9.986;2022-08-18T12:34:34;26.30;93.00
5588;DHT22;2816;49.778;9.986;2022-08-18T12:37:02;26.20;93.20
5588;DHT22;2816;49.778;9.986;2022-08-18T12:39:30;26.40;92.60
5588;DHT22;2816;49.778;9.986;2022-08-18T12:41:57;26.50;92.60
5588;DHT22;2816;49.778;9.986;2022-08-18T12:44:26;26.70;92.50
5588;DHT22;2816;49.778;9.986;2022-08-18T12:46:53;26.80;92.60
5588;DHT22;2816;49.778;9.986;2022-08-18T12:49:23;27.00;92.20
5588;DHT22;2816;49.778;9.986;2022-08-18T12:51:51;26.80;92.40
5588;DHT22;2816;49.778;9.986;2022-08-18T12:54:20;27.10;91.60
5588;DHT22;2816;49.778;9.986;2022-08-18T12:56:49;27.10;91.10
5588;DHT22;2816;49.778;9.986;2022-08-18T12:59:16;26.90;90.30
5588;DHT22;2816;49.778;9.986;2022-08-18T13:01:46;27.30;90.70
5588;DHT22;2816;49.778;9.986;2022-08-18T13:04:13;27.50;90.00
5588;DHT22;2816;49.778;9.986;2022-08-18T13:06:44;27.40;89.50
5588;DHT22;2816;49.778;9.986;2022-08-18T13:09:12;27.20;89.70
5588;DHT22;2816;49.778;9.986;2022-08-18T13:11:39;27.50;89.80
5588;DHT22;2816;49.778;9.986;2022-08-18T13:14:06;27.70;88.80
5588;DHT22;2816;49.778;9.986;2022-08-18T13:16:35;27.60;89.50
5588;DHT22;2816;49.778;9.986;2022-08-18T13:19:04;27.70;88.30
5588;DHT22;2816;49.778;9.986;2022-08-18T13:21:31;27.40;89.30
5588;DHT22;2816;49.778;9.986;2022-08-18T13:23:58;27.40;88.90
5588;DHT22;2816;49.778;9.986;2022-08-18T13:26:27;27.70;87.70
5588;DHT22;2816;49.778;9.986;2022-08-18T13:28:54;27.70;88.50
5588;DHT22;2816;49.778;9.986;2022-08-18T13:31:22;27.80;88.50
5588;DHT22;2816;49.778;9.986;2022-08-18T13:33:50;27.90;89.70
5588;DHT22;2816;49.778;9.986;2022-08-18T13:36:19;28.40;89.00
5588;DHT22;2816;49.778;9.986;2022-08-18T13:38:46;28.20;89.20
5588;DHT22;2816;49.778;9.986;2022-08-18T13:41:13;28.50;87.40
5588;DHT22;2816;49.778;9.986;2022-08-18T13:43:43;28.20;87.50
5588;DHT22;2816;49.778;9.986;2022-08-18T13:46:13;28.30;87.20
5588;DHT22;2816;49.778;9.986;2022-08-18T13:48:40;27.90;89.20
5588;DHT22;2816;49.778;9.986;2022-08-18T13:51:10;28.30;88.40
5588;DHT22;2816;49.778;9.986;2022-08-18T13:53:41;28.30;88.50
5588;DHT22;2816;49.778;9.986;2022-08-18T13:56:08;28.50;88.30
5588;DHT22;2816;49.778;9.986;2022-08-18T13:58:35;28.60;88.50
5588;DHT22;2816;49.778;9.986;2022-08-18T14:01:05;28.50;87.70
5588;DHT22;2816;49.778;9.986;2022-08-18T14:03:33;28.60;87.90
5588;DHT22;2816;49.778;9.986;2022-08-18T14:06:00;28.90;87.90
5588;DHT22;2816;49.778;9.986;2022-08-18T14:08:28;29.10;86.10
5588;DHT22;2816;49.778;9.986;2022-08-18T14:10:58;28.60;86.90
5588;DHT22;2816;49.778;9.986;2022-08-18T14:13:26;28.50;88.00
5588;DHT22;2816;49.778;9.986;2022-08-18T14:15:55;28.60;87.90
5588;DHT22;2816;49.778;9.986;2022-08-18T14:18:23;28.90;87.10
5588;DHT22;2816;49.778;9.986;2022-08-18T14:20:50;28.50;85.80
5588;DHT22;2816;49.778;9.986;2022-08-18T14:23:35;28.50;86.50
5588;DHT22;2816;49.778;9.986;2022-08-18T14:26:21;28.50;87.30
5588;DHT22;2816;49.778;9.986;2022-08-18T14:29:06;28.20;88.10
5588;DHT22;2816;49.778;9.986;2022-08-18T14:31:34;28.20;88.40
5588;DHT22;2816;49.778;9.986;2022-08-18T14:34:01;28.50;87.50
5588;DHT22;2816;49.778;9.986;2022-08-18T14:36:28;28.80;87.10
5588;DHT22;2816;49.778;9.986;2022-08-18T14:38:55;28.40;87.80
5588;DHT22;2816;49.778;9.986;2022-08-18T14:41:24;28.60;87.50
5588;DHT22;2816;49.778;9.986;2022-08-18T14:43:51;28.30;87.60
5588;DHT22;2816;49.778;9.986;2022-08-18T14:46:21;28.50;87.50
5588;DHT22;2816;49.778;9.986;2022-08-18T14:48:48;28.30;87.80
5588;DHT22;2816;49.778;9.986;2022-08-18T14:51:15;28.60;86.50
5588;DHT22;2816;49.778;9.986;2022-08-18T14:53:42;28.50;86.80
5588;DHT22;2816;49.778;9.986;2022-08-18T14:56:09;28.70;86.30
5588;DHT22;2816;49.778;9.986;2022-08-18T14:58:38;28.40;87.20
5588;DHT22;2816;49.778;9.986;2022-08-18T15:01:07;27.90;88.10
5588;DHT22;2816;49.778;9.986;2022-08-18T15:03:37;27.80;88.30
5588;DHT22;2816;49.778;9.986;2022-08-18T15:06:05;27.90;87.90
5588;DHT22;2816;49.778;9.986;2022-08-18T15:08:33;28.00;88.20
5588;DHT22;2816;49.778;9.986;2022-08-18T15:11:00;28.10;88.10
5588;DHT22;2816;49.778;9.986;2022-08-18T15:13:28;28.20;88.20
5588;DHT22;2816;49.778;9.986;2022-08-18T15:15:56;28.30;88.30
5588;DHT22;2816;49.778;9.986;2022-08-18T15:18:23;28.60;87.50
5588;DHT22;2816;49.778;9.986;2022-08-18T15:20:50;28.60;86.80
5588;DHT22;2816;49.778;9.986;2022-08-18T15:23:35;28.60;86.30
5588;DHT22;2816;49.778;9.986;2022-08-18T15:26:22;28.20;87.50
5588;DHT22;2816;49.778;9.986;2022-08-18T15:28:50;28.30;87.80
5588;DHT22;2816;49.778;9.986;2022-08-18T15:31:18;28.10;87.60
5588;DHT22;2816;49.778;9.986;2022-08-18T15:33:45;28.20;87.20
5588;DHT22;2816;49.778;9.986;2022-08-18T15:36:12;28.30;87.00
5588;DHT22;2816;49.778;9.986;2022-08-18T15:38:42;28.20;87.00
5588;DHT22;2816;49.778;9.986;2022-08-18T15:41:09;28.10;86.20
5588;DHT22;2816;49.778;9.986;2022-08-18T15:43:49;28.00;86.80
5588;DHT22;2816;49.778;9.986;2022-08-18T15:46:17;28.10;86.90
5588;DHT22;2816;49.778;9.986;2022-08-18T15:48:44;28.30;86.50
5588;DHT22;2816;49.778;9.986;2022-08-18T15:51:11;28.10;85.80
5588;DHT22;2816;49.778;9.986;2022-08-18T15:53:39;28.20;86.20
5588;DHT22;2816;49.778;9.986;2022-08-18T15:56:12;28.30;87.10
5588;DHT22;2816;49.778;9.986;2022-08-18T15:58:39;28.20;86.40
5588;DHT22;2816;49.778;9.986;2022-08-18T16:01:08;27.90;87.10
5588;DHT22;2816;49.778;9.986;2022-08-18T16:03:37;27.90;86.90
5588;DHT22;2816;49.778;9.986;2022-08-18T16:06:05;27.70;87.20
5588;DHT22;2816;49.778;9.986;2022-08-18T16:08:33;27.70;87.30
5588;DHT22;2816;49.778;9.986;2022-08-18T16:11:06;27.50;87.80
5588;DHT22;2816;49.778;9.986;2022-08-18T16:13:33;27.50;88.00
5588;DHT22;2816;49.778;9.986;2022-08-18T16:16:02;27.50;87.90
5588;DHT22;2816;49.778;9.986;2022-08-18T16:18:33;27.40;87.60
5588;DHT22;2816;49.778;9.986;2022-08-18T16:21:04;27.40;87.50
5588;DHT22;2816;49.778;9.986;2022-08-18T16:23:36;27.40;87.60
5588;DHT22;2816;49.778;9.986;2022-08-18T16:26:03;27.40;87.40
5588;DHT22;2816;49.778;9.986;2022-08-18T16:28:31;27.30;87.00
5588;DHT22;2816;49.778;9.986;2022-08-18T16:30:58;27.30;87.00
5588;DHT22;2816;49.778;9.986;2022-08-18T16:33:25;27.30;86.70
5588;DHT22;2816;49.778;9.986;2022-08-18T16:35:53;27.30;87.00
5588;DHT22;2816;49.778;9.986;2022-08-18T16:38:21;27.30;87.10
5588;DHT22;2816;49.778;9.986;2022-08-18T16:40:48;27.30;87.30
5588;DHT22;2816;49.778;9.986;2022-08-18T16:43:15;27.10;87.60
5588;DHT22;2816;49.778;9.986;2022-08-18T16:45:42;27.10;87.70
5588;DHT22;2816;49.778;9.986;2022-08-18T16:48:09;27.00;87.50
5588;DHT22;2816;49.778;9.986;2022-08-18T16:50:37;27.00;87.60
5588;DHT22;2816;49.778;9.986;2022-08-18T16:53:07;27.00;87.70
5588;DHT22;2816;49.778;9.986;2022-08-18T16:55:35;26.90;89.10